ASA930 PHOG-KSEA
Flight info
| Callsign | ASA930 |
|---|---|
| Flight time | N/A |
| Altitude | 39000 |
| Route | DCT APACK R463 AUNTI A332 HELOP DCT 40N136W 43N131W DCT SEDAR DCT LATAY HAWKZ8 |
| Aircraft | A332/H-SDE3GHIJ2J3J5M1RVWXY/LB2D1 |
Departure
| Time | 2026-05-06 17:19 |
|---|---|
| Airport | Kahului International Airport (PHOG) |
Arrival
| Time | N/A |
|---|---|
| Airport | Seattle–Tacoma International Airport (KSEA) |
| Time | Latitude | Longitude | Altitude | Speed | Heading |
|---|---|---|---|---|---|
| 2026-05-06 16:51 | 20.89530 | -156.43496 | 49 ft | 0 kts | 305° |
| 2026-05-06 17:08 | 20.89526 | -156.43489 | 49 ft | 3 kts | 305° |
| 2026-05-06 17:08 | 20.89514 | -156.43472 | 49 ft | 3 kts | 305° |
| 2026-05-06 17:09 | 20.89502 | -156.43454 | 49 ft | 3 kts | 305° |
| 2026-05-06 17:09 | 20.89491 | -156.43437 | 49 ft | 3 kts | 304° |
| 2026-05-06 17:09 | 20.89481 | -156.43419 | 49 ft | 3 kts | 288° |
| 2026-05-06 17:09 | 20.89478 | -156.43399 | 49 ft | 3 kts | 263° |
| 2026-05-06 17:10 | 20.89483 | -156.43379 | 49 ft | 3 kts | 238° |
| 2026-05-06 17:10 | 20.89495 | -156.43362 | 49 ft | 3 kts | 221° |
| 2026-05-06 17:10 | 20.89510 | -156.43349 | 49 ft | 2 kts | 215° |
| 2026-05-06 17:10 | 20.89515 | -156.43346 | 49 ft | 0 kts | 215° |
| 2026-05-06 17:14 | 20.89512 | -156.43348 | 49 ft | 2 kts | 215° |
| 2026-05-06 17:14 | 20.89497 | -156.43359 | 49 ft | 4 kts | 215° |
| 2026-05-06 17:14 | 20.89471 | -156.43379 | 49 ft | 3 kts | 216° |
| 2026-05-06 17:14 | 20.89470 | -156.43380 | 49 ft | 1 kts | 216° |
| 2026-05-06 17:15 | 20.89460 | -156.43388 | 49 ft | 3 kts | 218° |
| 2026-05-06 17:15 | 20.89439 | -156.43405 | 49 ft | 5 kts | 215° |
| 2026-05-06 17:15 | 20.89407 | -156.43428 | 49 ft | 6 kts | 214° |
| 2026-05-06 17:15 | 20.89365 | -156.43458 | 49 ft | 8 kts | 214° |
| 2026-05-06 17:16 | 20.89313 | -156.43497 | 49 ft | 10 kts | 214° |
| 2026-05-06 17:16 | 20.89250 | -156.43543 | 48 ft | 12 kts | 214° |
| 2026-05-06 17:16 | 20.89179 | -156.43597 | 48 ft | 13 kts | 215° |
| 2026-05-06 17:16 | 20.89100 | -156.43657 | 48 ft | 15 kts | 215° |
| 2026-05-06 17:17 | 20.89019 | -156.43709 | 48 ft | 9 kts | 192° |
| 2026-05-06 17:17 | 20.88971 | -156.43693 | 48 ft | 8 kts | 143° |
| 2026-05-06 17:17 | 20.88937 | -156.43641 | 48 ft | 9 kts | 109° |
| 2026-05-06 17:17 | 20.88963 | -156.43594 | 48 ft | 7 kts | 35° |
| 2026-05-06 17:18 | 20.88967 | -156.43591 | 48 ft | 0 kts | 34° |
| 2026-05-06 17:18 | 20.89069 | -156.43519 | 49 ft | 46 kts | 34° |
| 2026-05-06 17:18 | 20.89517 | -156.43185 | 51 ft | 109 kts | 35° |
| 2026-05-06 17:18 | 20.90307 | -156.42601 | 69 ft | 163 kts | 34° |
| 2026-05-06 17:19 | 20.91289 | -156.41863 | 536 ft | 182 kts | 35° |
| 2026-05-06 17:19 | 20.92358 | -156.41025 | 1220 ft | 195 kts | 37° |
| 2026-05-06 17:19 | 20.93448 | -156.40132 | 1992 ft | 203 kts | 38° |
| 2026-05-06 17:19 | 20.94619 | -156.39168 | 2459 ft | 224 kts | 37° |
| 2026-05-06 17:20 | 20.95932 | -156.38121 | 2845 ft | 244 kts | 36° |
| 2026-05-06 17:20 | 20.97342 | -156.37002 | 3319 ft | 260 kts | 36° |
| 2026-05-06 17:20 | 20.98828 | -156.35834 | 4011 ft | 268 kts | 33° |
| 2026-05-06 17:20 | 21.00510 | -156.34952 | 4826 ft | 272 kts | 16° |
| 2026-05-06 17:21 | 21.02354 | -156.34552 | 5640 ft | 275 kts | 7° |
| 2026-05-06 17:21 | 21.04277 | -156.34367 | 6452 ft | 279 kts | 2° |
| 2026-05-06 17:21 | 21.06225 | -156.34316 | 7250 ft | 283 kts | 360° |
| 2026-05-06 17:21 | 21.08210 | -156.34328 | 8043 ft | 287 kts | 359° |
| 2026-05-06 17:22 | 21.10216 | -156.34358 | 8823 ft | 290 kts | 359° |
| 2026-05-06 17:22 | 21.12251 | -156.34384 | 9588 ft | 294 kts | 359° |
| 2026-05-06 17:22 | 21.14320 | -156.34397 | 10264 ft | 302 kts | 359° |
| 2026-05-06 17:22 | 21.16492 | -156.34397 | 10597 ft | 321 kts | 360° |
| 2026-05-06 17:23 | 21.18791 | -156.34386 | 10878 ft | 339 kts | 0° |
| 2026-05-06 17:23 | 21.21206 | -156.34368 | 11141 ft | 355 kts | 0° |
| 2026-05-06 17:23 | 21.23699 | -156.34345 | 11384 ft | 370 kts | 0° |
| 2026-05-06 17:23 | 21.26318 | -156.34320 | 11729 ft | 381 kts | 0° |
| 2026-05-06 17:24 | 21.28986 | -156.34295 | 12212 ft | 386 kts | 0° |
| 2026-05-06 17:24 | 21.31692 | -156.34271 | 12724 ft | 390 kts | 0° |
| 2026-05-06 17:24 | 21.34424 | -156.34247 | 13224 ft | 393 kts | 0° |
| 2026-05-06 17:24 | 21.37174 | -156.34223 | 13706 ft | 397 kts | 0° |
| 2026-05-06 17:25 | 21.39954 | -156.34200 | 14171 ft | 400 kts | 0° |
| 2026-05-06 17:25 | 21.42750 | -156.34177 | 14616 ft | 403 kts | 0° |
| 2026-05-06 17:25 | 21.45561 | -156.34153 | 15042 ft | 406 kts | 0° |
| 2026-05-06 17:25 | 21.48406 | -156.34130 | 15452 ft | 409 kts | 0° |
| 2026-05-06 17:26 | 21.51265 | -156.34106 | 15844 ft | 412 kts | 0° |
| 2026-05-06 17:26 | 21.54112 | -156.34082 | 16216 ft | 415 kts | 0° |
| 2026-05-06 17:26 | 21.57009 | -156.34058 | 16576 ft | 418 kts | 0° |
| 2026-05-06 17:26 | 21.59925 | -156.34034 | 16920 ft | 420 kts | 0° |
| 2026-05-06 17:27 | 21.62865 | -156.34009 | 17249 ft | 423 kts | 0° |
| 2026-05-06 17:27 | 21.65815 | -156.33984 | 17563 ft | 425 kts | 0° |
| 2026-05-06 17:27 | 21.68782 | -156.33959 | 17863 ft | 427 kts | 0° |
| 2026-05-06 17:27 | 21.71757 | -156.33935 | 18149 ft | 430 kts | 0° |
| 2026-05-06 17:28 | 21.74768 | -156.33909 | 18424 ft | 432 kts | 0° |
| 2026-05-06 17:28 | 21.77770 | -156.33884 | 18685 ft | 434 kts | 0° |
| 2026-05-06 17:28 | 21.80803 | -156.33859 | 18936 ft | 436 kts | 0° |
| 2026-05-06 17:28 | 21.83803 | -156.33833 | 19327 ft | 436 kts | 0° |
| 2026-05-06 17:29 | 21.86835 | -156.33808 | 19587 ft | 437 kts | 0° |
| 2026-05-06 17:29 | 21.89900 | -156.33782 | 19726 ft | 441 kts | 0° |
| 2026-05-06 17:29 | 21.92972 | -156.33756 | 19911 ft | 443 kts | 0° |
| 2026-05-06 17:29 | 21.96071 | -156.33730 | 20108 ft | 445 kts | 0° |
| 2026-05-06 17:30 | 21.99173 | -156.33704 | 20299 ft | 447 kts | 0° |
| 2026-05-06 17:30 | 22.02294 | -156.33678 | 20485 ft | 448 kts | 0° |
| 2026-05-06 17:30 | 22.05425 | -156.33652 | 20665 ft | 450 kts | 0° |
| 2026-05-06 17:30 | 22.08552 | -156.33625 | 20839 ft | 451 kts | 0° |
| 2026-05-06 17:31 | 22.11667 | -156.33599 | 21006 ft | 452 kts | 0° |
| 2026-05-06 17:31 | 22.14818 | -156.33573 | 21169 ft | 454 kts | 0° |
| 2026-05-06 17:31 | 22.17979 | -156.33546 | 21327 ft | 455 kts | 0° |
| 2026-05-06 17:31 | 22.21157 | -156.33519 | 21480 ft | 456 kts | 0° |
| 2026-05-06 17:32 | 22.24335 | -156.33492 | 21628 ft | 457 kts | 0° |
| 2026-05-06 17:32 | 22.27523 | -156.33466 | 21771 ft | 459 kts | 0° |
| 2026-05-06 17:32 | 22.30718 | -156.33439 | 21911 ft | 460 kts | 0° |
| 2026-05-06 17:32 | 22.33922 | -156.33411 | 22048 ft | 461 kts | 0° |
| 2026-05-06 17:33 | 22.37133 | -156.33384 | 22182 ft | 462 kts | 0° |
| 2026-05-06 17:33 | 22.40352 | -156.33357 | 22313 ft | 463 kts | 0° |
| 2026-05-06 17:33 | 22.43578 | -156.33329 | 22442 ft | 464 kts | 0° |
| 2026-05-06 17:33 | 22.46819 | -156.33302 | 22568 ft | 465 kts | 0° |
| 2026-05-06 17:34 | 22.50025 | -156.33275 | 22690 ft | 466 kts | 0° |
| 2026-05-06 17:34 | 22.53272 | -156.33247 | 22811 ft | 467 kts | 0° |
| 2026-05-06 17:34 | 22.56535 | -156.33220 | 22929 ft | 468 kts | 0° |
| 2026-05-06 17:34 | 22.59790 | -156.33192 | 23044 ft | 469 kts | 0° |
| 2026-05-06 17:35 | 22.63066 | -156.33164 | 23157 ft | 470 kts | 0° |